createdAt,value
2023-05-11T00:01:54.174Z,6.32
2023-05-11T00:04:21.575Z,5.75
2023-05-11T00:06:48.709Z,5.28
2023-05-11T00:09:16.047Z,4.35
2023-05-11T00:11:43.151Z,3.20
2023-05-11T00:14:10.463Z,3.28
2023-05-11T00:16:37.555Z,2.75
2023-05-11T00:19:04.702Z,2.60
2023-05-11T00:21:32.444Z,3.17
2023-05-11T00:23:59.542Z,2.70
2023-05-11T00:26:26.957Z,2.88
2023-05-11T00:28:54.150Z,2.60
2023-05-11T00:31:21.403Z,2.85
2023-05-11T00:33:48.539Z,2.63
2023-05-11T00:36:15.766Z,2.60
2023-05-11T00:38:42.864Z,2.55
2023-05-11T00:41:09.929Z,2.83
2023-05-11T00:43:37.089Z,2.60
2023-05-11T00:46:04.753Z,2.70
2023-05-11T00:48:32.620Z,2.47
2023-05-11T00:51:00.457Z,2.67
2023-05-11T00:53:27.787Z,2.65
2023-05-11T00:55:55.065Z,2.65
2023-05-11T00:58:22.213Z,2.78
2023-05-11T01:00:49.280Z,2.95
2023-05-11T01:03:17.577Z,3.10
2023-05-11T01:05:48.418Z,2.80
2023-05-11T01:08:36.312Z,3.35
2023-05-11T01:11:12.207Z,3.22
2023-05-11T01:13:44.949Z,3.28
2023-05-11T01:16:24.724Z,2.95
2023-05-11T01:19:29.909Z,3.30
2023-05-11T01:21:57.897Z,3.40
2023-05-11T01:25:05.891Z,3.40
2023-05-11T01:27:54.205Z,3.25
2023-05-11T01:30:39.357Z,3.05
2023-05-11T01:33:12.527Z,3.22
2023-05-11T01:35:46.140Z,3.17
2023-05-11T01:38:16.019Z,3.28
2023-05-11T01:40:50.993Z,3.55
2023-05-11T01:43:21.984Z,3.00
2023-05-11T01:45:51.498Z,3.38
2023-05-11T01:48:24.227Z,3.08
2023-05-11T01:50:52.648Z,3.38
2023-05-11T01:53:20.763Z,2.88
2023-05-11T01:55:49.784Z,3.20
2023-05-11T01:58:18.796Z,3.03
2023-05-11T02:00:46.451Z,3.25
2023-05-11T02:03:15.775Z,3.53
2023-05-11T02:05:44.183Z,3.35
2023-05-11T02:08:12.586Z,3.60
2023-05-11T02:10:41.850Z,3.42
2023-05-11T02:13:10.326Z,3.53
2023-05-11T02:15:43.258Z,4.30
2023-05-11T02:18:13.445Z,3.20
2023-05-11T02:20:44.178Z,4.35
2023-05-11T02:23:11.835Z,4.50
2023-05-11T02:25:41.164Z,4.50
2023-05-11T02:28:08.735Z,4.00
2023-05-11T02:30:44.819Z,4.13
2023-05-11T02:33:19.924Z,4.32
2023-05-11T02:35:49.128Z,4.35
2023-05-11T02:38:17.878Z,4.32
2023-05-11T02:40:51.721Z,4.22
2023-05-11T02:43:25.493Z,4.25
2023-05-11T02:45:58.746Z,3.90
2023-05-11T02:48:30.506Z,3.80
2023-05-11T02:51:00.537Z,4.57
2023-05-11T02:53:29.369Z,3.90
2023-05-11T02:55:57.794Z,4.32
2023-05-11T02:58:25.907Z,4.47
2023-05-11T03:00:53.437Z,4.60
2023-05-11T03:03:20.825Z,5.07
2023-05-11T03:05:47.984Z,4.95
2023-05-11T03:08:15.145Z,4.82
2023-05-11T03:10:42.651Z,4.90
2023-05-11T03:13:10.235Z,5.30
2023-05-11T03:15:38.951Z,5.70
2023-05-11T03:18:07.969Z,5.45
2023-05-11T03:20:37.658Z,6.00
2023-05-11T03:23:06.623Z,6.13
2023-05-11T03:25:34.290Z,6.57
2023-05-11T03:28:03.303Z,7.93
2023-05-11T03:30:31.016Z,8.00
2023-05-11T03:32:58.134Z,7.32
2023-05-11T03:35:27.898Z,8.57
2023-05-11T03:37:56.642Z,8.40
2023-05-11T03:40:24.766Z,8.60
2023-05-11T03:42:55.539Z,8.40
2023-05-11T03:45:23.678Z,8.48
2023-05-11T03:47:52.416Z,9.23
2023-05-11T03:50:21.463Z,9.50
2023-05-11T03:52:49.329Z,9.02
2023-05-11T03:55:16.551Z,8.45
2023-05-11T03:57:43.750Z,9.15
2023-05-11T04:00:11.984Z,9.73
2023-05-11T04:02:39.436Z,10.82
2023-05-11T04:05:11.820Z,10.18
2023-05-11T04:07:39.719Z,10.40
2023-05-11T04:10:07.524Z,10.18
2023-05-11T04:12:34.642Z,10.90
2023-05-11T04:15:01.968Z,10.38
2023-05-11T04:17:29.062Z,9.65
2023-05-11T04:19:56.258Z,10.57
2023-05-11T04:22:23.554Z,10.52
2023-05-11T04:24:50.658Z,10.88
2023-05-11T04:27:17.771Z,10.85
2023-05-11T04:29:45.204Z,11.05
2023-05-11T04:32:12.341Z,11.15
2023-05-11T04:34:39.726Z,10.40
2023-05-11T04:37:07.662Z,11.27
2023-05-11T04:39:35.123Z,11.05
2023-05-11T04:42:02.452Z,11.20
2023-05-11T04:44:29.612Z,10.90
2023-05-11T04:46:57.812Z,9.75
2023-05-11T04:49:25.030Z,10.93
2023-05-11T04:51:52.288Z,10.45
2023-05-11T04:54:19.368Z,10.27
2023-05-11T04:56:46.534Z,9.80
2023-05-11T04:59:13.653Z,10.90
2023-05-11T05:01:40.773Z,11.25
2023-05-11T05:04:08.867Z,10.35
2023-05-11T05:06:38.545Z,10.48
2023-05-11T05:09:05.645Z,11.57
2023-05-11T05:11:32.839Z,11.65
2023-05-11T05:13:59.927Z,11.35
2023-05-11T05:16:27.048Z,12.70
2023-05-11T05:18:54.223Z,12.90
2023-05-11T05:21:21.371Z,13.63
2023-05-11T05:23:48.499Z,12.98
2023-05-11T05:26:15.813Z,13.43
2023-05-11T05:28:42.876Z,13.65
2023-05-11T05:31:10.108Z,13.50
2023-05-11T05:33:37.253Z,14.15
2023-05-11T05:36:04.581Z,13.43
2023-05-11T05:38:31.822Z,13.90
2023-05-11T05:40:59.460Z,14.13
2023-05-11T05:43:26.486Z,15.13
2023-05-11T05:45:53.547Z,14.07
2023-05-11T05:48:20.708Z,14.07
2023-05-11T05:50:47.946Z,13.52
2023-05-11T05:53:15.028Z,12.85
2023-05-11T05:55:42.275Z,13.20
2023-05-11T05:58:09.323Z,14.30
2023-05-11T06:00:36.657Z,14.70
2023-05-11T06:03:04.253Z,14.18
2023-05-11T06:05:31.377Z,13.77
2023-05-11T06:08:09.912Z,14.80
2023-05-11T06:10:38.094Z,13.43
2023-05-11T06:13:05.267Z,14.32
2023-05-11T06:15:32.417Z,14.55
2023-05-11T06:17:59.575Z,14.40
2023-05-11T06:20:26.896Z,14.38
2023-05-11T06:22:53.950Z,13.90
2023-05-11T06:25:21.125Z,14.43
2023-05-11T06:27:48.188Z,14.88
2023-05-11T06:30:15.774Z,15.07
2023-05-11T06:32:42.968Z,15.80
2023-05-11T06:35:10.434Z,15.43
2023-05-11T06:37:37.500Z,15.30
2023-05-11T06:40:04.904Z,14.90
2023-05-11T06:42:31.984Z,14.50
2023-05-11T06:44:59.205Z,15.02
2023-05-11T06:47:27.047Z,16.08
2023-05-11T06:49:54.498Z,15.05
2023-05-11T06:52:21.607Z,14.90
2023-05-11T06:54:48.703Z,14.02
2023-05-11T06:57:15.777Z,13.90
2023-05-11T06:59:42.816Z,14.48
2023-05-11T07:02:10.112Z,13.90
2023-05-11T07:04:37.488Z,14.30
2023-05-11T07:07:04.717Z,13.68
2023-05-11T07:09:31.809Z,14.10
2023-05-11T07:11:59.006Z,13.27
2023-05-11T07:14:26.102Z,13.13
2023-05-11T07:16:53.298Z,12.95
2023-05-11T07:19:20.368Z,12.45
2023-05-11T07:21:47.497Z,13.00
2023-05-11T07:24:14.649Z,12.48
2023-05-11T07:26:41.703Z,11.95
2023-05-11T07:29:08.819Z,12.55
2023-05-11T07:31:36.626Z,12.63
2023-05-11T07:34:04.338Z,13.05
2023-05-11T07:36:31.774Z,13.32
2023-05-11T07:38:59.737Z,12.77
2023-05-11T07:41:27.369Z,13.02
2023-05-11T07:43:54.942Z,12.35
2023-05-11T07:46:22.416Z,13.10
2023-05-11T07:48:51.645Z,12.95
2023-05-11T07:51:24.836Z,14.02
2023-05-11T07:53:52.292Z,13.40
2023-05-11T07:56:20.044Z,13.43
2023-05-11T07:58:47.044Z,14.57
2023-05-11T08:01:14.140Z,14.82
2023-05-11T08:03:41.369Z,13.35
2023-05-11T08:06:14.162Z,13.82
2023-05-11T08:08:41.493Z,14.93
2023-05-11T08:11:09.341Z,14.80
2023-05-11T08:13:37.538Z,15.38
2023-05-11T08:16:04.949Z,16.02
2023-05-11T08:18:32.232Z,15.18
2023-05-11T08:20:59.565Z,15.88
2023-05-11T08:23:26.659Z,15.48
2023-05-11T08:25:56.575Z,14.63
2023-05-11T08:28:23.659Z,14.98
2023-05-11T08:30:57.963Z,15.82
2023-05-11T08:33:37.356Z,14.30
2023-05-11T08:36:07.145Z,13.57
2023-05-11T08:38:35.905Z,14.05
2023-05-11T08:41:03.516Z,13.68
2023-05-11T08:43:32.568Z,13.10
2023-05-11T08:46:03.308Z,12.40
2023-05-11T08:48:32.138Z,12.43
2023-05-11T08:50:59.889Z,12.88
2023-05-11T08:53:26.957Z,12.63
2023-05-11T08:55:57.091Z,12.63
2023-05-11T08:58:24.408Z,11.23
2023-05-11T09:00:52.332Z,10.95
2023-05-11T09:03:20.088Z,10.90
2023-05-11T09:05:47.969Z,11.75
2023-05-11T09:08:17.774Z,10.75
2023-05-11T09:10:45.404Z,9.95
2023-05-11T09:13:12.876Z,9.25
2023-05-11T09:15:40.073Z,9.30
2023-05-11T09:18:07.743Z,9.57
2023-05-11T09:20:35.509Z,9.63
2023-05-11T09:23:02.829Z,10.75
2023-05-11T09:25:33.738Z,12.43
2023-05-11T09:28:01.053Z,11.10
2023-05-11T09:30:28.527Z,11.15
2023-05-11T09:32:59.397Z,10.98
2023-05-11T09:35:34.839Z,11.63
2023-05-11T09:38:07.928Z,11.07
2023-05-11T09:40:55.851Z,12.23
2023-05-11T09:43:28.495Z,10.80
2023-05-11T09:45:57.609Z,11.27
2023-05-11T09:48:26.267Z,11.80
2023-05-11T09:51:07.948Z,11.15
2023-05-11T09:53:44.762Z,11.80
2023-05-11T09:56:15.733Z,11.00
2023-05-11T09:58:50.973Z,11.32
2023-05-11T10:01:29.235Z,11.32
2023-05-11T10:04:08.970Z,11.63
2023-05-11T10:06:55.112Z,11.57
2023-05-11T10:09:26.805Z,10.43
2023-05-11T10:11:55.667Z,10.95
2023-05-11T10:14:24.416Z,12.43
2023-05-11T10:16:52.354Z,11.45
2023-05-11T10:19:19.980Z,10.30
2023-05-11T10:21:47.792Z,11.68
2023-05-11T10:24:19.591Z,10.73
2023-05-11T10:26:48.862Z,11.88
2023-05-11T10:29:19.424Z,12.00
2023-05-11T10:31:48.458Z,11.15
2023-05-11T10:34:16.745Z,12.38
2023-05-11T10:36:46.461Z,10.93
2023-05-11T10:39:13.542Z,11.60
2023-05-11T10:42:11.532Z,11.15
2023-05-11T10:44:55.137Z,11.30
2023-05-11T10:47:47.022Z,11.60
2023-05-11T10:50:25.695Z,10.73
2023-05-11T10:53:07.768Z,10.07
2023-05-11T10:55:46.254Z,8.68
2023-05-11T10:58:19.657Z,9.35
2023-05-11T11:01:11.908Z,8.15
2023-05-11T11:03:39.194Z,9.02
2023-05-11T11:06:06.555Z,9.00
2023-05-11T11:08:57.053Z,9.07
2023-05-11T11:11:32.345Z,9.32
2023-05-11T11:14:02.783Z,9.55
2023-05-11T11:16:31.051Z,9.05
2023-05-11T11:19:29.763Z,9.30
2023-05-11T11:22:01.257Z,9.10
2023-05-11T11:24:44.765Z,8.30
2023-05-11T11:27:12.415Z,8.53
2023-05-11T11:29:40.505Z,8.68
2023-05-11T11:32:25.669Z,9.02
2023-05-11T11:34:52.765Z,10.05
2023-05-11T11:37:22.375Z,8.63
2023-05-11T11:39:53.707Z,8.95
2023-05-11T11:42:42.901Z,9.68
2023-05-11T11:45:31.224Z,9.90
2023-05-11T11:48:08.317Z,9.38
2023-05-11T11:50:35.689Z,9.65
2023-05-11T11:53:04.120Z,9.60
2023-05-11T11:55:51.997Z,8.48
2023-05-11T11:58:43.659Z,8.45
2023-05-11T12:01:19.672Z,9.18
2023-05-11T12:04:04.881Z,9.70
2023-05-11T12:06:41.178Z,8.88
2023-05-11T12:09:08.858Z,10.20
2023-05-11T12:11:40.479Z,9.70
2023-05-11T12:14:10.447Z,9.85
2023-05-11T12:16:37.552Z,10.18
2023-05-11T12:19:04.826Z,9.43
2023-05-11T12:21:32.657Z,10.52
2023-05-11T12:24:02.019Z,9.85
2023-05-11T12:26:30.860Z,10.60
2023-05-11T12:29:09.306Z,10.15
2023-05-11T12:31:41.023Z,10.43
2023-05-11T12:34:15.724Z,9.70
2023-05-11T12:36:44.335Z,9.38
2023-05-11T12:39:18.975Z,8.88
2023-05-11T12:41:48.158Z,9.32
2023-05-11T12:44:17.296Z,9.70
2023-05-11T12:46:48.769Z,9.55
2023-05-11T12:49:26.950Z,9.45
2023-05-11T12:52:00.645Z,10.57
2023-05-11T12:54:38.924Z,10.13
2023-05-11T12:57:08.272Z,10.25
2023-05-11T12:59:40.659Z,10.27
2023-05-11T13:02:18.913Z,9.68
2023-05-11T13:04:47.482Z,10.70
2023-05-11T13:07:24.539Z,11.25
2023-05-11T13:09:59.616Z,9.95
2023-05-11T13:12:27.695Z,10.00
2023-05-11T13:15:13.464Z,10.13
2023-05-11T13:17:42.133Z,9.63
2023-05-11T13:20:30.000Z,9.68
2023-05-11T13:23:08.705Z,10.55
2023-05-11T13:25:56.153Z,9.88
2023-05-11T13:28:24.968Z,9.13
2023-05-11T13:30:58.486Z,9.93
2023-05-11T13:33:25.604Z,9.57
2023-05-11T13:35:52.665Z,10.70
2023-05-11T13:38:19.751Z,10.02
2023-05-11T13:40:47.126Z,9.55
2023-05-11T13:43:14.156Z,10.95
2023-05-11T13:45:41.482Z,10.15
2023-05-11T13:48:08.835Z,10.40
2023-05-11T13:50:36.227Z,10.30
2023-05-11T13:53:03.330Z,10.55
2023-05-11T13:55:30.906Z,10.60
2023-05-11T13:57:58.254Z,11.30
2023-05-11T14:00:25.433Z,11.27
2023-05-11T14:02:53.154Z,11.88
2023-05-11T14:05:20.542Z,11.40
2023-05-11T14:07:51.420Z,11.75
2023-05-11T14:10:21.101Z,11.00
2023-05-11T14:12:48.157Z,11.23
2023-05-11T14:15:15.184Z,11.48
2023-05-11T14:17:43.526Z,13.40
2023-05-11T14:20:15.480Z,14.02
2023-05-11T14:22:42.696Z,14.45
2023-05-11T14:25:09.876Z,14.30
2023-05-11T14:27:37.317Z,14.05
2023-05-11T14:30:04.771Z,13.63
2023-05-11T14:32:31.947Z,13.82
2023-05-11T14:34:59.104Z,12.40
2023-05-11T14:37:26.191Z,13.18
2023-05-11T14:39:53.295Z,12.80
2023-05-11T14:42:20.526Z,14.65
2023-05-11T14:44:49.168Z,14.65
2023-05-11T14:47:16.348Z,14.15
2023-05-11T14:49:43.424Z,16.05
2023-05-11T14:52:10.873Z,14.93
2023-05-11T14:54:38.035Z,14.98
2023-05-11T14:57:05.893Z,14.13
2023-05-11T14:59:33.053Z,15.20
2023-05-11T15:02:00.545Z,15.20
2023-05-11T15:04:27.813Z,14.60
2023-05-11T15:06:55.380Z,14.98
2023-05-11T15:09:24.137Z,15.60
2023-05-11T15:11:51.298Z,15.93
2023-05-11T15:14:18.499Z,15.60
2023-05-11T15:16:46.380Z,15.45
2023-05-11T15:19:13.846Z,16.13
2023-05-11T15:21:40.927Z,15.20
2023-05-11T15:24:10.670Z,15.65
2023-05-11T15:26:38.479Z,15.07
2023-05-11T15:29:05.680Z,15.38
2023-05-11T15:31:33.308Z,15.60
2023-05-11T15:34:01.361Z,15.27
2023-05-11T15:36:29.860Z,15.07
2023-05-11T15:38:57.113Z,16.08
2023-05-11T15:41:24.251Z,14.75
2023-05-11T15:43:52.498Z,16.00
2023-05-11T15:46:19.715Z,15.07
2023-05-11T15:48:46.968Z,16.08
2023-05-11T15:51:14.455Z,16.60
2023-05-11T15:53:41.502Z,15.68
2023-05-11T15:56:09.654Z,16.20
2023-05-11T15:58:36.753Z,16.25
2023-05-11T16:01:03.915Z,15.45
2023-05-11T16:03:31.067Z,16.77
2023-05-11T16:05:58.274Z,16.67
2023-05-11T16:08:25.452Z,16.08
2023-05-11T16:10:52.752Z,17.00
2023-05-11T16:13:19.843Z,17.15
2023-05-11T16:15:46.908Z,15.98
2023-05-11T16:18:14.462Z,16.42
2023-05-11T16:20:42.249Z,15.98
2023-05-11T16:23:09.492Z,16.50
2023-05-11T16:25:36.518Z,16.15
2023-05-11T16:28:03.690Z,15.70
2023-05-11T16:30:31.420Z,15.27
2023-05-11T16:32:58.869Z,13.82
2023-05-11T16:35:26.041Z,12.73
2023-05-11T16:37:54.146Z,11.85
2023-05-11T16:40:21.713Z,12.80
2023-05-11T16:42:49.228Z,14.13
2023-05-11T16:45:16.783Z,16.33
2023-05-11T16:47:46.911Z,15.88
2023-05-11T16:50:19.121Z,16.25
2023-05-11T16:52:46.386Z,17.45
2023-05-11T16:55:16.231Z,18.30
2023-05-11T16:57:44.660Z,17.20
2023-05-11T17:00:13.596Z,13.90
2023-05-11T17:02:41.613Z,13.73
2023-05-11T17:05:10.738Z,9.80
2023-05-11T17:07:38.191Z,9.10
2023-05-11T17:10:07.467Z,8.82
2023-05-11T17:12:35.955Z,8.25
2023-05-11T17:15:03.955Z,9.32
2023-05-11T17:17:30.995Z,8.82
2023-05-11T17:19:58.196Z,8.45
2023-05-11T17:22:26.246Z,8.52
2023-05-11T17:24:53.353Z,9.23
2023-05-11T17:27:20.472Z,8.02
2023-05-11T17:29:47.737Z,8.98
2023-05-11T17:32:14.918Z,10.50
2023-05-11T17:34:42.197Z,9.57
2023-05-11T17:37:17.369Z,9.60
2023-05-11T17:39:51.594Z,8.52
2023-05-11T17:42:22.213Z,9.48
2023-05-11T17:44:49.277Z,9.55
2023-05-11T17:47:16.372Z,10.00
2023-05-11T17:49:43.556Z,9.20
2023-05-11T17:52:10.632Z,10.70
2023-05-11T17:54:37.851Z,10.35
2023-05-11T17:57:05.401Z,10.80
2023-05-11T17:59:32.649Z,10.30
2023-05-11T18:02:01.514Z,10.93
2023-05-11T18:04:29.604Z,11.25
2023-05-11T18:06:57.412Z,11.73
2023-05-11T18:09:24.534Z,11.50
2023-05-11T18:11:51.700Z,11.05
2023-05-11T18:14:18.821Z,11.73
2023-05-11T18:16:46.772Z,11.82
2023-05-11T18:19:13.818Z,13.38
2023-05-11T18:21:40.962Z,11.70
2023-05-11T18:24:15.844Z,12.13
2023-05-11T18:26:42.896Z,12.90
2023-05-11T18:29:11.193Z,13.10
2023-05-11T18:31:38.243Z,13.25
2023-05-11T18:34:09.025Z,14.15
2023-05-11T18:36:36.300Z,14.57
2023-05-11T18:39:04.899Z,15.52
2023-05-11T18:41:32.046Z,15.48
2023-05-11T18:44:00.288Z,17.15
2023-05-11T18:46:28.859Z,16.85
2023-05-11T18:48:55.906Z,17.88
2023-05-11T18:51:23.055Z,17.77
2023-05-11T18:53:51.636Z,19.05
2023-05-11T18:56:18.729Z,17.35
2023-05-11T18:58:46.632Z,18.52
2023-05-11T19:01:16.088Z,17.33
2023-05-11T19:03:43.307Z,18.23
2023-05-11T19:06:10.454Z,19.98
2023-05-11T19:08:37.678Z,20.17
2023-05-11T19:11:09.657Z,20.40
2023-05-11T19:13:37.103Z,19.33
2023-05-11T19:16:04.884Z,18.08
2023-05-11T19:18:35.605Z,18.00
2023-05-11T19:21:04.979Z,18.55
2023-05-11T19:23:33.294Z,18.90
2023-05-11T19:26:00.771Z,18.45
2023-05-11T19:28:27.943Z,19.30
2023-05-11T19:31:05.957Z,18.77
2023-05-11T19:33:34.156Z,20.15
2023-05-11T19:36:01.516Z,22.25
2023-05-11T19:38:29.462Z,23.42
2023-05-11T19:40:56.714Z,23.02
2023-05-11T19:43:23.881Z,22.23
2023-05-11T19:45:51.067Z,24.00
2023-05-11T19:48:19.160Z,20.75
2023-05-11T19:50:47.965Z,22.67
2023-05-11T19:53:17.929Z,20.35
2023-05-11T19:55:47.207Z,23.15
2023-05-11T19:58:15.132Z,36.05
2023-05-11T20:00:42.601Z,23.70
2023-05-11T20:03:10.411Z,18.55
2023-05-11T20:05:37.758Z,18.55
2023-05-11T20:08:07.880Z,16.45
2023-05-11T20:10:35.959Z,16.98
2023-05-11T20:13:08.170Z,18.25
2023-05-11T20:15:35.749Z,36.90
2023-05-11T20:18:03.268Z,53.55
2023-05-11T20:20:31.792Z,32.63
2023-05-11T20:23:00.025Z,43.33
2023-05-11T20:25:27.158Z,31.50
2023-05-11T20:27:54.296Z,24.75
2023-05-11T20:30:21.439Z,22.42
2023-05-11T20:35:23.355Z,16.63
2023-05-11T20:37:50.931Z,17.23
2023-05-11T20:40:20.225Z,17.52
2023-05-11T20:42:47.558Z,18.50
2023-05-11T20:45:15.503Z,18.52
2023-05-11T20:47:42.860Z,19.00
2023-05-11T20:50:10.323Z,18.77
2023-05-11T20:52:37.727Z,19.77
2023-05-11T20:55:05.164Z,23.08
2023-05-11T20:57:32.176Z,22.73
2023-05-11T21:02:29.387Z,26.15
2023-05-11T21:05:02.144Z,28.40
2023-05-11T21:07:30.162Z,27.17
2023-05-11T21:09:57.364Z,25.27
2023-05-11T21:12:24.499Z,23.65
2023-05-11T21:14:51.531Z,21.00
2023-05-11T21:17:18.786Z,19.48
2023-05-11T21:19:46.765Z,20.05
2023-05-11T21:22:13.791Z,20.55
2023-05-11T21:24:41.353Z,18.98
2023-05-11T21:27:08.466Z,20.10
2023-05-11T21:29:36.156Z,20.05
2023-05-11T21:32:03.520Z,19.50
2023-05-11T21:34:30.593Z,18.80
2023-05-11T21:36:57.702Z,18.40
2023-05-11T21:39:25.251Z,18.63
2023-05-11T21:41:52.401Z,19.15
2023-05-11T21:44:20.543Z,18.15
2023-05-11T21:46:47.723Z,18.40
2023-05-11T21:49:14.905Z,18.15
2023-05-11T21:51:42.705Z,17.60
2023-05-11T21:54:09.822Z,17.13
2023-05-11T21:56:37.095Z,17.83
2023-05-11T21:59:04.162Z,17.25
2023-05-11T22:01:31.382Z,16.40
2023-05-11T22:04:01.187Z,17.00
2023-05-11T22:06:28.474Z,16.48
2023-05-11T22:08:55.700Z,16.40
2023-05-11T22:11:22.865Z,17.38
2023-05-11T22:13:50.114Z,17.85
2023-05-11T22:16:17.270Z,16.63
2023-05-11T22:18:44.440Z,17.30
2023-05-11T22:21:11.802Z,16.65
2023-05-11T22:23:39.051Z,16.85
2023-05-11T22:26:06.192Z,17.38
2023-05-11T22:28:33.253Z,17.17
2023-05-11T22:31:00.560Z,16.48
2023-05-11T22:33:27.605Z,17.10
2023-05-11T22:35:54.688Z,16.55
2023-05-11T22:38:21.813Z,17.15
2023-05-11T22:40:48.861Z,15.93
2023-05-11T22:43:16.136Z,15.10
2023-05-11T22:45:43.174Z,15.10
2023-05-11T22:48:10.320Z,15.55
2023-05-11T22:50:37.320Z,14.65
2023-05-11T22:53:04.725Z,16.02
2023-05-11T22:55:32.107Z,15.27
2023-05-11T22:57:59.099Z,15.55
2023-05-11T23:00:26.269Z,16.60
2023-05-11T23:02:53.428Z,15.52
2023-05-11T23:05:20.665Z,16.42
2023-05-11T23:07:47.678Z,16.23
2023-05-11T23:10:14.832Z,16.20
2023-05-11T23:12:41.869Z,16.80
2023-05-11T23:15:10.654Z,16.38
2023-05-11T23:17:38.980Z,15.63
2023-05-11T23:20:06.888Z,14.85
2023-05-11T23:22:33.931Z,15.98
2023-05-11T23:25:01.076Z,16.05
2023-05-11T23:27:28.764Z,14.65
2023-05-11T23:29:55.904Z,15.40
2023-05-11T23:32:22.979Z,17.27
2023-05-11T23:34:50.231Z,16.25
2023-05-11T23:37:17.295Z,16.50
2023-05-11T23:39:44.497Z,17.55
2023-05-11T23:42:11.622Z,17.40
2023-05-11T23:44:38.654Z,16.23
2023-05-11T23:47:06.185Z,15.18
2023-05-11T23:49:33.287Z,16.05
2023-05-11T23:52:00.349Z,17.10
2023-05-11T23:54:27.878Z,15.88
2023-05-11T23:56:55.037Z,14.80
2023-05-11T23:59:22.025Z,16.50
